Campanya Meteocatpedra
Centenari de l'SMC: 100 anys mirant el cel

Dades de l'estació automàtica Torres de Segre

?
?

Resum diari

22:30 TU
Dades diàries de l'estació meteorològica
Temperatura mitjana 19.2 °C
Temperatura màxima 25.3 °C 13:49 TU
Temperatura mínima 14.0 °C 6:21 TU
Humitat relativa mitjana 55%
Precipitació acumulada 0.0 mm
Ratxa màxima del vent (2 m) 34.9 km/h - 265º 16:27 TU
Irradiació solar global 20.5 MJ/m2

El tram horari està expressat en Temps Universal (TU). Cal sumar una hora en horari d'hivern i dues en horari d'estiu per passar a l'hora oficial.

Torres de Segre

Metadades estació meteorològica
Municipi Torres de Segre
Comarca Segrià
Altitud 215 m
Data alta 02.07.2007
Estat actual Operativa
Dades de període
Període
TU
TM
°C
TX
°C
TN
°C
HRM
%
PPT
mm
VVM (2 m)
km/h
DVM (2 m)
graus
VVX (2 m)
km/h
RS
W/m2
00:00 - 00:30 16.2 16.9 15.8 74 0.0 5.8 200 9.4 0
00:30 - 01:00 16.2 16.4 15.9 74 0.0 7.6 210 13.3 0
01:00 - 01:30 15.9 16.1 15.8 76 0.0 8.6 218 14.4 0
01:30 - 02:00 15.9 16.0 15.8 75 0.0 10.1 231 17.6 0
02:00 - 02:30 15.6 15.9 15.4 76 0.0 9.7 232 15.8 0
02:30 - 03:00 15.4 15.6 15.1 78 0.0 8.6 224 15.5 0
03:00 - 03:30 14.9 15.1 14.6 80 0.0 7.2 204 12.2 0
03:30 - 04:00 14.9 15.1 14.6 81 0.0 6.5 207 10.8 0
04:00 - 04:30 14.9 15.0 14.8 81 0.0 6.5 214 10.8 0
04:30 - 05:00 14.8 15.0 14.8 83 0.0 6.8 213 11.5 0
05:00 - 05:30 14.7 15.0 14.2 84 0.0 6.1 204 10.4 0
05:30 - 06:00 14.2 14.4 14.1 85 0.0 6.1 188 10.1 3
06:00 - 06:30 14.2 14.3 14.0 83 0.0 6.8 186 10.4 18
06:30 - 07:00 15.0 16.0 14.4 79 0.0 6.8 198 10.4 123
07:00 - 07:30 16.7 17.4 16.1 73 0.0 10.1 220 16.9 249
07:30 - 08:00 17.2 17.5 16.9 70 0.0 11.5 239 20.5 194
08:00 - 08:30 18.1 18.6 17.2 66 0.0 11.5 243 19.4 439
08:30 - 09:00 18.9 19.3 18.6 61 0.0 10.4 252 18.7 519
09:00 - 09:30 19.5 20.4 18.8 59 0.0 8.3 258 17.3 539
09:30 - 10:00 20.4 21.2 19.9 55 0.0 8.6 294 19.1 575
10:00 - 10:30 21.5 22.2 20.8 50 0.0 8.6 287 23.0 699
10:30 - 11:00 22.3 22.8 21.7 46 0.0 10.8 286 20.9 768
11:00 - 11:30 23.0 23.6 22.4 44 0.0 11.5 291 22.3 795
11:30 - 12:00 23.7 24.2 23.1 42 0.0 10.8 291 22.7 791
12:00 - 12:30 23.9 24.5 23.3 39 0.0 13.0 303 26.6 766
12:30 - 13:00 24.4 24.7 24.1 34 0.0 15.1 302 29.2 786
13:00 - 13:30 24.7 25.2 24.4 30 0.0 15.5 293 29.9 749
13:30 - 14:00 24.8 25.3 24.6 28 0.0 15.8 292 30.2 704
14:00 - 14:30 24.8 25.1 24.5 26 0.0 15.5 295 29.2 643
14:30 - 15:00 24.7 25.2 24.4 26 0.0 15.8 297 34.2 569
15:00 - 15:30 24.6 24.9 24.4 28 0.0 14.0 285 32.8 482
15:30 - 16:00 24.4 24.7 23.9 28 0.0 14.0 279 27.0 390
16:00 - 16:30 23.9 24.1 23.6 32 0.0 18.0 262 34.9 321
16:30 - 17:00 23.1 23.6 22.8 35 0.0 16.2 275 32.4 204
17:00 - 17:30 22.2 22.8 21.7 34 0.0 14.0 276 28.8 80
17:30 - 18:00 21.3 21.7 20.8 35 0.0 11.2 277 23.8 21
18:00 - 18:30 20.5 20.9 20.1 38 0.0 10.8 269 19.1 0
18:30 - 19:00 19.8 20.0 19.6 42 0.0 11.2 260 20.9 0
19:00 - 19:30 19.2 19.6 19.0 46 0.0 11.2 259 22.7 0
19:30 - 20:00 18.9 19.1 18.6 44 0.0 11.5 278 22.0 0
20:00 - 20:30 18.5 18.6 18.1 46 0.0 12.2 273 22.7 0
20:30 - 21:00 17.9 18.2 17.6 49 0.0 11.5 286 25.9 0
21:00 - 21:30 17.6 17.7 17.5 52 0.0 8.6 269 19.4 0
21:30 - 22:00 17.3 17.5 17.2 53 0.0 9.4 263 16.6 0
22:00 - 22:30 17.0 17.3 16.7 60 0.0 9.7 222 20.2 0
22:30 - 23:00 16.6 16.8 16.3 62 0.0 12.2 222 23.4 0
23:00 - 23:30 (s/d) (s/d) (s/d) (s/d) (s/d) (s/d) (s/d) (s/d) (s/d)

Les dades en taronja només han passat un control de qualitat automàtic. Resta pendent la seva validació definitiva.